sensor_id;sensor_type;location;lat;lon;timestamp;P1;durP1;ratioP1;P2;durP2;ratioP2
36547;SDS011;22551;52.206;4.856;2023-03-01T00:04:57;19.83;;;8.55;;
36547;SDS011;22551;52.206;4.856;2023-03-01T00:10:00;18.38;;;9.13;;
36547;SDS011;22551;52.206;4.856;2023-03-01T00:15:05;23.33;;;9.95;;
36547;SDS011;22551;52.206;4.856;2023-03-01T00:20:11;22.23;;;9.80;;
36547;SDS011;22551;52.206;4.856;2023-03-01T00:25:14;21.38;;;10.05;;
36547;SDS011;22551;52.206;4.856;2023-03-01T00:30:19;23.42;;;10.35;;
36547;SDS011;22551;52.206;4.856;2023-03-01T00:35:21;20.50;;;9.27;;
36547;SDS011;22551;52.206;4.856;2023-03-01T00:40:24;22.40;;;10.55;;
36547;SDS011;22551;52.206;4.856;2023-03-01T00:45:30;22.45;;;10.80;;
36547;SDS011;22551;52.206;4.856;2023-03-01T00:50:34;26.77;;;11.60;;
36547;SDS011;22551;52.206;4.856;2023-03-01T00:55:36;25.38;;;11.25;;
36547;SDS011;22551;52.206;4.856;2023-03-01T01:00:40;21.70;;;10.73;;
36547;SDS011;22551;52.206;4.856;2023-03-01T01:05:42;23.67;;;10.73;;
36547;SDS011;22551;52.206;4.856;2023-03-01T01:10:45;23.73;;;10.70;;
36547;SDS011;22551;52.206;4.856;2023-03-01T01:15:49;20.77;;;10.35;;
36547;SDS011;22551;52.206;4.856;2023-03-01T01:20:51;24.15;;;11.32;;
36547;SDS011;22551;52.206;4.856;2023-03-01T01:25:53;23.92;;;9.90;;
36547;SDS011;22551;52.206;4.856;2023-03-01T01:30:57;24.17;;;11.23;;
36547;SDS011;22551;52.206;4.856;2023-03-01T01:36:00;28.02;;;11.15;;
36547;SDS011;22551;52.206;4.856;2023-03-01T01:41:03;24.55;;;10.80;;
36547;SDS011;22551;52.206;4.856;2023-03-01T01:46:10;19.02;;;9.75;;
36547;SDS011;22551;52.206;4.856;2023-03-01T01:51:23;19.27;;;9.82;;
36547;SDS011;22551;52.206;4.856;2023-03-01T01:56:38;23.67;;;10.93;;
36547;SDS011;22551;52.206;4.856;2023-03-01T02:01:45;24.42;;;10.68;;
36547;SDS011;22551;52.206;4.856;2023-03-01T02:06:48;25.33;;;10.60;;
36547;SDS011;22551;52.206;4.856;2023-03-01T02:11:57;22.55;;;10.15;;
36547;SDS011;22551;52.206;4.856;2023-03-01T02:17:04;21.98;;;10.32;;
36547;SDS011;22551;52.206;4.856;2023-03-01T02:22:10;24.02;;;11.30;;
36547;SDS011;22551;52.206;4.856;2023-03-01T02:27:23;25.00;;;10.13;;
36547;SDS011;22551;52.206;4.856;2023-03-01T02:32:37;25.58;;;10.32;;
36547;SDS011;22551;52.206;4.856;2023-03-01T02:37:41;21.77;;;10.48;;
36547;SDS011;22551;52.206;4.856;2023-03-01T02:42:47;21.58;;;9.60;;
36547;SDS011;22551;52.206;4.856;2023-03-01T02:47:55;24.50;;;11.18;;
36547;SDS011;22551;52.206;4.856;2023-03-01T02:53:00;22.88;;;10.05;;
36547;SDS011;22551;52.206;4.856;2023-03-01T02:58:07;24.20;;;11.13;;
36547;SDS011;22551;52.206;4.856;2023-03-01T03:03:12;23.67;;;10.90;;
36547;SDS011;22551;52.206;4.856;2023-03-01T03:08:15;26.65;;;11.35;;
36547;SDS011;22551;52.206;4.856;2023-03-01T03:13:23;21.58;;;10.23;;
36547;SDS011;22551;52.206;4.856;2023-03-01T03:18:29;26.10;;;10.15;;
36547;SDS011;22551;52.206;4.856;2023-03-01T03:23:32;24.55;;;11.23;;
36547;SDS011;22551;52.206;4.856;2023-03-01T03:28:35;25.70;;;11.10;;
36547;SDS011;22551;52.206;4.856;2023-03-01T03:33:41;25.50;;;11.70;;
36547;SDS011;22551;52.206;4.856;2023-03-01T03:38:43;22.70;;;11.30;;
36547;SDS011;22551;52.206;4.856;2023-03-01T03:43:46;25.13;;;10.85;;
36547;SDS011;22551;52.206;4.856;2023-03-01T03:48:50;24.95;;;11.70;;
36547;SDS011;22551;52.206;4.856;2023-03-01T03:53:53;25.35;;;10.95;;
36547;SDS011;22551;52.206;4.856;2023-03-01T03:58:55;24.63;;;10.45;;
36547;SDS011;22551;52.206;4.856;2023-03-01T04:04:01;25.02;;;11.02;;
36547;SDS011;22551;52.206;4.856;2023-03-01T04:09:04;25.33;;;10.80;;
36547;SDS011;22551;52.206;4.856;2023-03-01T04:14:06;23.20;;;11.20;;
36547;SDS011;22551;52.206;4.856;2023-03-01T04:19:10;22.38;;;10.30;;
36547;SDS011;22551;52.206;4.856;2023-03-01T04:24:12;24.70;;;9.98;;
36547;SDS011;22551;52.206;4.856;2023-03-01T04:29:15;25.35;;;11.07;;
36547;SDS011;22551;52.206;4.856;2023-03-01T04:34:18;22.83;;;9.95;;
36547;SDS011;22551;52.206;4.856;2023-03-01T04:39:21;23.92;;;10.52;;
36547;SDS011;22551;52.206;4.856;2023-03-01T04:44:25;28.23;;;12.27;;
36547;SDS011;22551;52.206;4.856;2023-03-01T04:49:31;21.30;;;10.32;;
36547;SDS011;22551;52.206;4.856;2023-03-01T04:54:34;23.45;;;9.55;;
36547;SDS011;22551;52.206;4.856;2023-03-01T04:59:37;23.80;;;9.68;;
36547;SDS011;22551;52.206;4.856;2023-03-01T05:04:40;21.45;;;10.65;;
36547;SDS011;22551;52.206;4.856;2023-03-01T05:09:43;21.30;;;10.05;;
36547;SDS011;22551;52.206;4.856;2023-03-01T05:14:45;20.40;;;9.68;;
36547;SDS011;22551;52.206;4.856;2023-03-01T05:19:48;20.35;;;10.02;;
36547;SDS011;22551;52.206;4.856;2023-03-01T05:24:51;26.00;;;11.38;;
36547;SDS011;22551;52.206;4.856;2023-03-01T05:29:54;26.10;;;11.43;;
36547;SDS011;22551;52.206;4.856;2023-03-01T05:34:57;20.70;;;9.63;;
36547;SDS011;22551;52.206;4.856;2023-03-01T05:39:59;23.02;;;10.80;;
36547;SDS011;22551;52.206;4.856;2023-03-01T05:45:03;24.48;;;9.82;;
36547;SDS011;22551;52.206;4.856;2023-03-01T05:50:14;20.52;;;9.98;;
36547;SDS011;22551;52.206;4.856;2023-03-01T05:55:20;20.33;;;10.02;;
36547;SDS011;22551;52.206;4.856;2023-03-01T06:00:22;23.95;;;10.68;;
36547;SDS011;22551;52.206;4.856;2023-03-01T06:05:27;27.35;;;11.90;;
36547;SDS011;22551;52.206;4.856;2023-03-01T06:10:29;22.25;;;10.98;;
36547;SDS011;22551;52.206;4.856;2023-03-01T06:15:32;25.02;;;11.25;;
36547;SDS011;22551;52.206;4.856;2023-03-01T06:20:35;29.65;;;13.00;;
36547;SDS011;22551;52.206;4.856;2023-03-01T06:25:37;35.08;;;13.73;;
36547;SDS011;22551;52.206;4.856;2023-03-01T06:30:40;31.60;;;14.05;;
36547;SDS011;22551;52.206;4.856;2023-03-01T06:35:43;32.67;;;12.70;;
36547;SDS011;22551;52.206;4.856;2023-03-01T06:40:51;32.05;;;12.60;;
36547;SDS011;22551;52.206;4.856;2023-03-01T06:45:54;29.98;;;13.18;;
36547;SDS011;22551;52.206;4.856;2023-03-01T06:50:59;28.25;;;12.18;;
36547;SDS011;22551;52.206;4.856;2023-03-01T06:56:01;27.27;;;13.45;;
36547;SDS011;22551;52.206;4.856;2023-03-01T07:01:07;35.07;;;14.40;;
36547;SDS011;22551;52.206;4.856;2023-03-01T07:06:11;24.40;;;12.02;;
36547;SDS011;22551;52.206;4.856;2023-03-01T07:11:13;25.88;;;12.05;;
36547;SDS011;22551;52.206;4.856;2023-03-01T07:16:16;25.38;;;12.48;;
36547;SDS011;22551;52.206;4.856;2023-03-01T07:21:20;26.33;;;12.43;;
36547;SDS011;22551;52.206;4.856;2023-03-01T08:00:09;25.35;;;11.45;;
36547;SDS011;22551;52.206;4.856;2023-03-01T08:05:13;26.08;;;11.05;;
36547;SDS011;22551;52.206;4.856;2023-03-01T08:10:16;27.42;;;12.30;;
36547;SDS011;22551;52.206;4.856;2023-03-01T08:15:20;26.30;;;12.75;;
36547;SDS011;22551;52.206;4.856;2023-03-01T08:20:23;24.00;;;11.05;;
36547;SDS011;22551;52.206;4.856;2023-03-01T08:25:25;23.40;;;11.35;;
36547;SDS011;22551;52.206;4.856;2023-03-01T08:30:29;29.40;;;13.05;;
36547;SDS011;22551;52.206;4.856;2023-03-01T08:35:34;30.05;;;14.55;;
36547;SDS011;22551;52.206;4.856;2023-03-01T08:40:36;37.60;;;15.88;;
36547;SDS011;22551;52.206;4.856;2023-03-01T08:45:39;38.30;;;16.27;;
36547;SDS011;22551;52.206;4.856;2023-03-01T08:50:42;35.22;;;16.65;;
36547;SDS011;22551;52.206;4.856;2023-03-01T08:55:44;37.83;;;17.27;;
36547;SDS011;22551;52.206;4.856;2023-03-01T09:00:48;40.08;;;17.92;;
36547;SDS011;22551;52.206;4.856;2023-03-01T09:05:50;42.80;;;18.35;;
36547;SDS011;22551;52.206;4.856;2023-03-01T09:10:52;41.33;;;17.45;;
36547;SDS011;22551;52.206;4.856;2023-03-01T09:15:56;35.75;;;17.08;;
36547;SDS011;22551;52.206;4.856;2023-03-01T09:21:02;31.45;;;14.73;;
36547;SDS011;22551;52.206;4.856;2023-03-01T09:26:07;31.45;;;14.68;;
36547;SDS011;22551;52.206;4.856;2023-03-01T09:31:21;25.23;;;11.07;;
36547;SDS011;22551;52.206;4.856;2023-03-01T09:36:24;19.58;;;9.90;;
36547;SDS011;22551;52.206;4.856;2023-03-01T09:41:34;17.50;;;8.73;;
36547;SDS011;22551;52.206;4.856;2023-03-01T09:46:47;20.13;;;9.25;;
36547;SDS011;22551;52.206;4.856;2023-03-01T09:51:56;17.63;;;7.60;;
36547;SDS011;22551;52.206;4.856;2023-03-01T09:57:06;17.27;;;7.35;;
36547;SDS011;22551;52.206;4.856;2023-03-01T10:02:30;13.57;;;6.68;;
36547;SDS011;22551;52.206;4.856;2023-03-01T10:07:42;12.40;;;6.55;;
36547;SDS011;22551;52.206;4.856;2023-03-01T10:12:50;11.07;;;6.20;;
36547;SDS011;22551;52.206;4.856;2023-03-01T10:17:56;12.88;;;6.20;;
36547;SDS011;22551;52.206;4.856;2023-03-01T10:23:07;15.93;;;8.30;;
36547;SDS011;22551;52.206;4.856;2023-03-01T10:28:12;18.10;;;8.98;;
36547;SDS011;22551;52.206;4.856;2023-03-01T10:33:21;21.08;;;9.35;;
36547;SDS011;22551;52.206;4.856;2023-03-01T10:38:27;23.02;;;9.18;;
36547;SDS011;22551;52.206;4.856;2023-03-01T10:43:41;21.30;;;10.10;;
36547;SDS011;22551;52.206;4.856;2023-03-01T10:48:50;20.90;;;10.13;;
36547;SDS011;22551;52.206;4.856;2023-03-01T10:54:18;21.15;;;8.75;;
36547;SDS011;22551;52.206;4.856;2023-03-01T10:59:27;19.45;;;10.20;;
36547;SDS011;22551;52.206;4.856;2023-03-01T11:04:36;16.55;;;8.30;;
36547;SDS011;22551;52.206;4.856;2023-03-01T11:09:39;18.10;;;9.13;;
36547;SDS011;22551;52.206;4.856;2023-03-01T11:14:45;18.17;;;8.70;;
36547;SDS011;22551;52.206;4.856;2023-03-01T11:20:01;14.55;;;7.53;;
36547;SDS011;22551;52.206;4.856;2023-03-01T11:25:08;16.15;;;8.13;;
36547;SDS011;22551;52.206;4.856;2023-03-01T11:30:16;19.38;;;8.10;;
36547;SDS011;22551;52.206;4.856;2023-03-01T11:35:25;16.00;;;7.38;;
36547;SDS011;22551;52.206;4.856;2023-03-01T11:40:31;16.33;;;7.93;;
36547;SDS011;22551;52.206;4.856;2023-03-01T11:45:42;15.32;;;7.53;;
36547;SDS011;22551;52.206;4.856;2023-03-01T11:51:04;12.75;;;7.28;;
36547;SDS011;22551;52.206;4.856;2023-03-01T11:56:15;15.20;;;6.53;;
36547;SDS011;22551;52.206;4.856;2023-03-01T12:01:32;13.32;;;6.75;;
36547;SDS011;22551;52.206;4.856;2023-03-01T12:07:01;14.30;;;6.75;;
36547;SDS011;22551;52.206;4.856;2023-03-01T12:12:18;13.13;;;6.22;;
36547;SDS011;22551;52.206;4.856;2023-03-01T12:17:43;15.82;;;7.40;;
36547;SDS011;22551;52.206;4.856;2023-03-01T12:23:24;12.32;;;6.18;;
36547;SDS011;22551;52.206;4.856;2023-03-01T12:29:20;11.38;;;5.93;;
36547;SDS011;22551;52.206;4.856;2023-03-01T12:40:22;9.73;;;5.10;;
36547;SDS011;22551;52.206;4.856;2023-03-01T12:45:46;12.23;;;6.00;;
36547;SDS011;22551;52.206;4.856;2023-03-01T12:50:59;8.90;;;4.57;;
36547;SDS011;22551;52.206;4.856;2023-03-01T12:56:08;10.88;;;4.85;;
36547;SDS011;22551;52.206;4.856;2023-03-01T13:01:16;8.93;;;4.63;;
36547;SDS011;22551;52.206;4.856;2023-03-01T13:06:29;9.90;;;5.10;;
36547;SDS011;22551;52.206;4.856;2023-03-01T13:11:42;7.07;;;4.05;;
36547;SDS011;22551;52.206;4.856;2023-03-01T13:16:45;7.57;;;3.72;;
36547;SDS011;22551;52.206;4.856;2023-03-01T13:21:49;12.50;;;6.10;;
36547;SDS011;22551;52.206;4.856;2023-03-01T13:27:10;14.80;;;7.13;;
36547;SDS011;22551;52.206;4.856;2023-03-01T13:32:25;10.02;;;4.22;;
36547;SDS011;22551;52.206;4.856;2023-03-01T13:37:30;5.15;;;2.85;;
36547;SDS011;22551;52.206;4.856;2023-03-01T13:42:40;5.28;;;2.95;;
36547;SDS011;22551;52.206;4.856;2023-03-01T13:47:46;6.47;;;3.40;;
36547;SDS011;22551;52.206;4.856;2023-03-01T13:52:59;6.88;;;3.60;;
36547;SDS011;22551;52.206;4.856;2023-03-01T13:58:14;7.95;;;3.08;;
36547;SDS011;22551;52.206;4.856;2023-03-01T14:03:23;4.95;;;2.88;;
36547;SDS011;22551;52.206;4.856;2023-03-01T14:08:26;7.68;;;2.88;;
36547;SDS011;22551;52.206;4.856;2023-03-01T14:13:35;5.60;;;2.97;;
36547;SDS011;22551;52.206;4.856;2023-03-01T14:18:52;8.80;;;3.40;;
36547;SDS011;22551;52.206;4.856;2023-03-01T14:24:13;5.57;;;2.80;;
36547;SDS011;22551;52.206;4.856;2023-03-01T14:29:35;5.32;;;2.90;;
36547;SDS011;22551;52.206;4.856;2023-03-01T14:34:46;6.10;;;3.25;;
36547;SDS011;22551;52.206;4.856;2023-03-01T14:39:51;6.50;;;2.67;;
36547;SDS011;22551;52.206;4.856;2023-03-01T14:44:56;5.18;;;2.90;;
36547;SDS011;22551;52.206;4.856;2023-03-01T14:50:03;6.43;;;3.38;;
36547;SDS011;22551;52.206;4.856;2023-03-01T14:55:13;6.78;;;3.33;;
36547;SDS011;22551;52.206;4.856;2023-03-01T15:00:22;5.25;;;2.97;;
36547;SDS011;22551;52.206;4.856;2023-03-01T15:05:28;5.70;;;3.47;;
36547;SDS011;22551;52.206;4.856;2023-03-01T15:10:34;4.47;;;2.88;;
36547;SDS011;22551;52.206;4.856;2023-03-01T15:20:46;8.35;;;3.05;;
36547;SDS011;22551;52.206;4.856;2023-03-01T15:25:50;10.30;;;4.47;;
36547;SDS011;22551;52.206;4.856;2023-03-01T15:31:00;7.70;;;3.63;;
36547;SDS011;22551;52.206;4.856;2023-03-01T15:41:37;6.85;;;3.88;;
36547;SDS011;22551;52.206;4.856;2023-03-01T15:46:50;9.32;;;3.20;;
36547;SDS011;22551;52.206;4.856;2023-03-01T15:51:53;5.95;;;2.83;;
36547;SDS011;22551;52.206;4.856;2023-03-01T15:56:56;6.07;;;3.28;;
36547;SDS011;22551;52.206;4.856;2023-03-01T16:02:00;5.20;;;2.78;;
36547;SDS011;22551;52.206;4.856;2023-03-01T16:07:03;6.13;;;3.10;;
36547;SDS011;22551;52.206;4.856;2023-03-01T16:12:05;7.95;;;4.07;;
36547;SDS011;22551;52.206;4.856;2023-03-01T16:17:15;8.20;;;3.28;;
36547;SDS011;22551;52.206;4.856;2023-03-01T16:22:18;6.43;;;3.33;;
36547;SDS011;22551;52.206;4.856;2023-03-01T16:27:25;5.07;;;3.00;;
36547;SDS011;22551;52.206;4.856;2023-03-01T16:32:29;7.28;;;2.90;;
36547;SDS011;22551;52.206;4.856;2023-03-01T16:37:31;5.95;;;3.42;;
36547;SDS011;22551;52.206;4.856;2023-03-01T16:42:35;7.47;;;3.88;;
36547;SDS011;22551;52.206;4.856;2023-03-01T16:47:41;7.25;;;3.50;;
36547;SDS011;22551;52.206;4.856;2023-03-01T16:52:44;8.10;;;3.13;;
36547;SDS011;22551;52.206;4.856;2023-03-01T16:57:49;8.93;;;4.13;;
36547;SDS011;22551;52.206;4.856;2023-03-01T17:02:53;8.88;;;4.30;;
36547;SDS011;22551;52.206;4.856;2023-03-01T17:07:55;8.68;;;3.75;;
36547;SDS011;22551;52.206;4.856;2023-03-01T17:12:59;7.95;;;3.63;;
36547;SDS011;22551;52.206;4.856;2023-03-01T17:18:05;7.28;;;3.90;;
36547;SDS011;22551;52.206;4.856;2023-03-01T17:23:08;7.80;;;4.68;;
36547;SDS011;22551;52.206;4.856;2023-03-01T17:28:11;8.23;;;3.65;;
36547;SDS011;22551;52.206;4.856;2023-03-01T17:33:16;9.40;;;3.60;;
36547;SDS011;22551;52.206;4.856;2023-03-01T17:38:22;7.82;;;3.83;;
36547;SDS011;22551;52.206;4.856;2023-03-01T17:43:25;8.93;;;3.97;;
36547;SDS011;22551;52.206;4.856;2023-03-01T17:48:29;8.45;;;4.00;;
36547;SDS011;22551;52.206;4.856;2023-03-01T17:53:32;7.85;;;4.15;;
36547;SDS011;22551;52.206;4.856;2023-03-01T17:58:34;8.50;;;3.65;;
36547;SDS011;22551;52.206;4.856;2023-03-01T18:03:39;9.60;;;4.30;;
36547;SDS011;22551;52.206;4.856;2023-03-01T18:13:46;8.52;;;4.63;;
36547;SDS011;22551;52.206;4.856;2023-03-01T18:18:53;9.10;;;4.57;;
36547;SDS011;22551;52.206;4.856;2023-03-01T18:23:57;10.70;;;5.45;;
36547;SDS011;22551;52.206;4.856;2023-03-01T18:28:59;9.90;;;4.57;;
36547;SDS011;22551;52.206;4.856;2023-03-01T18:34:05;7.28;;;4.10;;
36547;SDS011;22551;52.206;4.856;2023-03-01T18:39:07;8.73;;;4.63;;
36547;SDS011;22551;52.206;4.856;2023-03-01T18:44:09;9.32;;;5.50;;
36547;SDS011;22551;52.206;4.856;2023-03-01T18:49:14;11.20;;;5.82;;
36547;SDS011;22551;52.206;4.856;2023-03-01T18:54:16;8.80;;;4.88;;
36547;SDS011;22551;52.206;4.856;2023-03-01T18:59:19;14.07;;;5.57;;
36547;SDS011;22551;52.206;4.856;2023-03-01T19:04:23;11.82;;;5.85;;
36547;SDS011;22551;52.206;4.856;2023-03-01T19:09:26;10.85;;;5.40;;
36547;SDS011;22551;52.206;4.856;2023-03-01T19:14:28;12.77;;;6.28;;
36547;SDS011;22551;52.206;4.856;2023-03-01T19:19:32;8.95;;;5.47;;
36547;SDS011;22551;52.206;4.856;2023-03-01T19:24:35;12.20;;;6.22;;
36547;SDS011;22551;52.206;4.856;2023-03-01T19:29:37;11.52;;;5.63;;
36547;SDS011;22551;52.206;4.856;2023-03-01T19:34:41;12.27;;;6.35;;
36547;SDS011;22551;52.206;4.856;2023-03-01T19:39:45;11.35;;;5.40;;
36547;SDS011;22551;52.206;4.856;2023-03-01T19:44:50;11.43;;;5.95;;
36547;SDS011;22551;52.206;4.856;2023-03-01T19:49:56;14.50;;;6.30;;
36547;SDS011;22551;52.206;4.856;2023-03-01T19:54:58;13.77;;;6.50;;
36547;SDS011;22551;52.206;4.856;2023-03-01T20:00:01;16.35;;;7.15;;
36547;SDS011;22551;52.206;4.856;2023-03-01T20:05:05;11.77;;;5.57;;
36547;SDS011;22551;52.206;4.856;2023-03-01T20:10:12;15.00;;;6.60;;
36547;SDS011;22551;52.206;4.856;2023-03-01T20:15:18;11.13;;;5.45;;
36547;SDS011;22551;52.206;4.856;2023-03-01T20:20:23;14.68;;;6.20;;
36547;SDS011;22551;52.206;4.856;2023-03-01T20:25:28;11.43;;;5.25;;
36547;SDS011;22551;52.206;4.856;2023-03-01T20:30:31;16.38;;;7.15;;
36547;SDS011;22551;52.206;4.856;2023-03-01T20:35:35;15.07;;;7.00;;
36547;SDS011;22551;52.206;4.856;2023-03-01T20:40:39;17.58;;;7.28;;
36547;SDS011;22551;52.206;4.856;2023-03-01T20:46:02;17.73;;;7.53;;
36547;SDS011;22551;52.206;4.856;2023-03-01T20:51:10;15.88;;;6.88;;
36547;SDS011;22551;52.206;4.856;2023-03-01T20:56:14;13.07;;;6.37;;
36547;SDS011;22551;52.206;4.856;2023-03-01T21:01:18;17.02;;;7.40;;
36547;SDS011;22551;52.206;4.856;2023-03-01T21:06:25;18.60;;;8.15;;
36547;SDS011;22551;52.206;4.856;2023-03-01T21:11:33;15.63;;;7.28;;
36547;SDS011;22551;52.206;4.856;2023-03-01T21:16:36;22.00;;;7.35;;
36547;SDS011;22551;52.206;4.856;2023-03-01T21:21:42;17.65;;;7.65;;
36547;SDS011;22551;52.206;4.856;2023-03-01T21:26:54;17.58;;;7.82;;
36547;SDS011;22551;52.206;4.856;2023-03-01T21:31:57;16.30;;;7.43;;
36547;SDS011;22551;52.206;4.856;2023-03-01T21:37:01;16.25;;;6.75;;
36547;SDS011;22551;52.206;4.856;2023-03-01T21:42:03;16.85;;;7.22;;
36547;SDS011;22551;52.206;4.856;2023-03-01T21:47:06;17.25;;;8.30;;
36547;SDS011;22551;52.206;4.856;2023-03-01T21:52:10;19.25;;;7.75;;
36547;SDS011;22551;52.206;4.856;2023-03-01T21:57:16;19.40;;;8.10;;
36547;SDS011;22551;52.206;4.856;2023-03-01T22:02:18;16.58;;;6.97;;
36547;SDS011;22551;52.206;4.856;2023-03-01T22:07:22;18.20;;;8.32;;
36547;SDS011;22551;52.206;4.856;2023-03-01T22:12:25;17.42;;;8.23;;
36547;SDS011;22551;52.206;4.856;2023-03-01T22:17:27;18.85;;;8.65;;
36547;SDS011;22551;52.206;4.856;2023-03-01T22:22:31;17.77;;;8.20;;
36547;SDS011;22551;52.206;4.856;2023-03-01T22:27:34;19.90;;;9.10;;
36547;SDS011;22551;52.206;4.856;2023-03-01T22:32:38;17.30;;;7.68;;
36547;SDS011;22551;52.206;4.856;2023-03-01T22:37:43;19.40;;;9.07;;
36547;SDS011;22551;52.206;4.856;2023-03-01T22:42:46;21.55;;;10.23;;
36547;SDS011;22551;52.206;4.856;2023-03-01T22:47:48;25.27;;;10.82;;
36547;SDS011;22551;52.206;4.856;2023-03-01T22:52:53;21.90;;;9.73;;
36547;SDS011;22551;52.206;4.856;2023-03-01T22:57:55;24.08;;;11.32;;
36547;SDS011;22551;52.206;4.856;2023-03-01T23:02:58;28.77;;;11.57;;
36547;SDS011;22551;52.206;4.856;2023-03-01T23:08:02;34.00;;;15.45;;
36547;SDS011;22551;52.206;4.856;2023-03-01T23:13:05;39.83;;;15.70;;
36547;SDS011;22551;52.206;4.856;2023-03-01T23:18:08;35.33;;;15.05;;
36547;SDS011;22551;52.206;4.856;2023-03-01T23:23:11;38.72;;;17.05;;
36547;SDS011;22551;52.206;4.856;2023-03-01T23:28:14;40.15;;;15.52;;
36547;SDS011;22551;52.206;4.856;2023-03-01T23:33:16;44.53;;;19.08;;
36547;SDS011;22551;52.206;4.856;2023-03-01T23:38:20;43.03;;;17.67;;
36547;SDS011;22551;52.206;4.856;2023-03-01T23:43:23;39.95;;;17.05;;
36547;SDS011;22551;52.206;4.856;2023-03-01T23:48:25;49.17;;;17.75;;
36547;SDS011;22551;52.206;4.856;2023-03-01T23:53:29;40.33;;;17.17;;
36547;SDS011;22551;52.206;4.856;2023-03-01T23:58:32;39.70;;;16.85;;
